Fort Mc Coy, Florida
Current Conditions -  °F | °C
As of 9:50 AM on Saturday 25 Oct 2014 (Local Time) from KOCF Reporting Station
Clear Clear  
Wind Chill: 64°   Ceiling: Unl
Heat Index: 64°   Visibility: 10mi
Dew Point: 55°   Wind: 5mph
Humidity: 73%   Direction: 10°N
Pressure: 30.02"   Gusts: NA
Location:  29.3142°N, 81.8267°W
Report Text: KOCF 251350Z 01004KT 10SM CLR 18/13 A3002
Loading
Personal Weather Stations






























Interactive Weather Map
Tropical Storm Tracking
New forecast layout! Learn more

10-Day Weather Forecast

Advertisements
Track Severe Weather on mobile